sensor_id;sensor_type;location;lat;lon;timestamp;P1;durP1;ratioP1;P2;durP2;ratioP2
81701;SDS011;71115;52.150;4.510;2023-08-30T00:02:10;6.43;;;3.22;;
81701;SDS011;71115;52.150;4.510;2023-08-30T00:04:36;5.90;;;2.75;;
81701;SDS011;71115;52.150;4.510;2023-08-30T00:07:02;6.93;;;3.35;;
81701;SDS011;71115;52.150;4.510;2023-08-30T00:09:28;9.02;;;2.97;;
81701;SDS011;71115;52.150;4.510;2023-08-30T00:11:54;8.30;;;3.22;;
81701;SDS011;71115;52.150;4.510;2023-08-30T00:14:20;5.88;;;2.92;;
81701;SDS011;71115;52.150;4.510;2023-08-30T00:16:46;8.65;;;3.95;;
81701;SDS011;71115;52.150;4.510;2023-08-30T00:19:12;6.05;;;3.00;;
81701;SDS011;71115;52.150;4.510;2023-08-30T00:21:38;9.77;;;2.95;;
81701;SDS011;71115;52.150;4.510;2023-08-30T00:24:04;5.93;;;3.00;;
81701;SDS011;71115;52.150;4.510;2023-08-30T00:26:31;7.60;;;3.95;;
81701;SDS011;71115;52.150;4.510;2023-08-30T00:28:57;7.43;;;3.38;;
81701;SDS011;71115;52.150;4.510;2023-08-30T00:31:23;7.38;;;3.00;;
81701;SDS011;71115;52.150;4.510;2023-08-30T00:33:49;6.97;;;3.22;;
81701;SDS011;71115;52.150;4.510;2023-08-30T00:36:17;8.27;;;3.47;;
81701;SDS011;71115;52.150;4.510;2023-08-30T00:38:44;8.25;;;3.45;;
81701;SDS011;71115;52.150;4.510;2023-08-30T00:41:10;9.57;;;3.85;;
81701;SDS011;71115;52.150;4.510;2023-08-30T00:43:35;5.97;;;3.53;;
81701;SDS011;71115;52.150;4.510;2023-08-30T00:46:02;9.52;;;4.38;;
81701;SDS011;71115;52.150;4.510;2023-08-30T00:48:28;7.75;;;3.67;;
81701;SDS011;71115;52.150;4.510;2023-08-30T00:50:54;8.27;;;3.95;;
81701;SDS011;71115;52.150;4.510;2023-08-30T00:53:20;10.95;;;4.57;;
81701;SDS011;71115;52.150;4.510;2023-08-30T00:55:46;9.15;;;4.30;;
81701;SDS011;71115;52.150;4.510;2023-08-30T00:58:12;8.13;;;4.45;;
81701;SDS011;71115;52.150;4.510;2023-08-30T01:00:38;7.40;;;4.03;;
81701;SDS011;71115;52.150;4.510;2023-08-30T01:05:30;7.40;;;3.33;;
81701;SDS011;71115;52.150;4.510;2023-08-30T01:07:56;8.13;;;4.20;;
81701;SDS011;71115;52.150;4.510;2023-08-30T01:10:26;8.23;;;3.95;;
81701;SDS011;71115;52.150;4.510;2023-08-30T01:12:55;7.30;;;3.88;;
81701;SDS011;71115;52.150;4.510;2023-08-30T01:15:23;8.48;;;4.38;;
81701;SDS011;71115;52.150;4.510;2023-08-30T01:17:51;8.93;;;3.70;;
81701;SDS011;71115;52.150;4.510;2023-08-30T01:20:18;7.68;;;3.53;;
81701;SDS011;71115;52.150;4.510;2023-08-30T01:27:39;10.38;;;4.85;;
81701;SDS011;71115;52.150;4.510;2023-08-30T01:30:06;12.88;;;5.20;;
81701;SDS011;71115;52.150;4.510;2023-08-30T01:32:33;10.15;;;5.38;;
81701;SDS011;71115;52.150;4.510;2023-08-30T01:35:00;13.95;;;5.40;;
81701;SDS011;71115;52.150;4.510;2023-08-30T01:37:26;9.23;;;4.82;;
81701;SDS011;71115;52.150;4.510;2023-08-30T01:39:54;10.27;;;5.15;;
81701;SDS011;71115;52.150;4.510;2023-08-30T01:42:22;6.50;;;3.85;;
81701;SDS011;71115;52.150;4.510;2023-08-30T01:44:48;11.25;;;4.18;;
81701;SDS011;71115;52.150;4.510;2023-08-30T01:47:15;12.35;;;5.20;;
81701;SDS011;71115;52.150;4.510;2023-08-30T01:49:42;8.80;;;4.43;;
81701;SDS011;71115;52.150;4.510;2023-08-30T01:52:09;8.88;;;4.68;;
81701;SDS011;71115;52.150;4.510;2023-08-30T01:54:35;19.38;;;4.90;;
81701;SDS011;71115;52.150;4.510;2023-08-30T01:57:02;10.07;;;5.03;;
81701;SDS011;71115;52.150;4.510;2023-08-30T01:59:28;10.02;;;5.72;;
81701;SDS011;71115;52.150;4.510;2023-08-30T02:01:55;10.55;;;4.65;;
81701;SDS011;71115;52.150;4.510;2023-08-30T02:04:21;8.35;;;4.97;;
81701;SDS011;71115;52.150;4.510;2023-08-30T02:06:54;10.88;;;5.75;;
81701;SDS011;71115;52.150;4.510;2023-08-30T02:11:52;15.18;;;6.28;;
81701;SDS011;71115;52.150;4.510;2023-08-30T02:14:19;9.40;;;4.25;;
81701;SDS011;71115;52.150;4.510;2023-08-30T02:19:12;11.07;;;4.68;;
81701;SDS011;71115;52.150;4.510;2023-08-30T02:21:41;13.77;;;5.05;;
81701;SDS011;71115;52.150;4.510;2023-08-30T02:24:07;15.70;;;5.07;;
81701;SDS011;71115;52.150;4.510;2023-08-30T02:26:34;11.98;;;5.75;;
81701;SDS011;71115;52.150;4.510;2023-08-30T02:29:00;12.32;;;5.38;;
81701;SDS011;71115;52.150;4.510;2023-08-30T02:31:26;13.15;;;6.35;;
81701;SDS011;71115;52.150;4.510;2023-08-30T02:33:52;13.50;;;6.55;;
81701;SDS011;71115;52.150;4.510;2023-08-30T02:36:18;15.88;;;6.18;;
81701;SDS011;71115;52.150;4.510;2023-08-30T02:38:44;12.75;;;5.57;;
81701;SDS011;71115;52.150;4.510;2023-08-30T02:41:10;11.68;;;5.68;;
81701;SDS011;71115;52.150;4.510;2023-08-30T02:43:37;11.63;;;5.72;;
81701;SDS011;71115;52.150;4.510;2023-08-30T02:46:03;14.20;;;6.20;;
81701;SDS011;71115;52.150;4.510;2023-08-30T02:48:30;12.57;;;5.63;;
81701;SDS011;71115;52.150;4.510;2023-08-30T02:50:56;9.18;;;5.22;;
81701;SDS011;71115;52.150;4.510;2023-08-30T02:53:22;11.45;;;5.05;;
81701;SDS011;71115;52.150;4.510;2023-08-30T02:55:48;10.55;;;5.28;;
81701;SDS011;71115;52.150;4.510;2023-08-30T02:58:14;8.77;;;4.70;;
81701;SDS011;71115;52.150;4.510;2023-08-30T03:00:41;8.60;;;4.05;;
81701;SDS011;71115;52.150;4.510;2023-08-30T03:03:07;16.02;;;5.78;;
81701;SDS011;71115;52.150;4.510;2023-08-30T03:05:33;14.38;;;5.32;;
81701;SDS011;71115;52.150;4.510;2023-08-30T03:07:59;9.13;;;4.70;;
81701;SDS011;71115;52.150;4.510;2023-08-30T03:10:25;11.32;;;5.85;;
81701;SDS011;71115;52.150;4.510;2023-08-30T03:12:51;10.75;;;4.85;;
81701;SDS011;71115;52.150;4.510;2023-08-30T03:15:17;17.08;;;5.47;;
81701;SDS011;71115;52.150;4.510;2023-08-30T03:17:43;11.35;;;5.80;;
81701;SDS011;71115;52.150;4.510;2023-08-30T03:20:09;11.30;;;5.82;;
81701;SDS011;71115;52.150;4.510;2023-08-30T03:22:35;11.38;;;5.05;;
81701;SDS011;71115;52.150;4.510;2023-08-30T03:25:01;10.73;;;5.88;;
81701;SDS011;71115;52.150;4.510;2023-08-30T03:27:28;10.10;;;5.55;;
81701;SDS011;71115;52.150;4.510;2023-08-30T03:29:55;11.23;;;5.38;;
81701;SDS011;71115;52.150;4.510;2023-08-30T03:32:21;14.23;;;6.57;;
81701;SDS011;71115;52.150;4.510;2023-08-30T03:34:47;12.00;;;5.43;;
81701;SDS011;71115;52.150;4.510;2023-08-30T03:37:14;12.30;;;5.45;;
81701;SDS011;71115;52.150;4.510;2023-08-30T03:42:06;9.77;;;5.57;;
81701;SDS011;71115;52.150;4.510;2023-08-30T03:44:32;10.55;;;6.07;;
81701;SDS011;71115;52.150;4.510;2023-08-30T03:46:58;10.52;;;5.55;;
81701;SDS011;71115;52.150;4.510;2023-08-30T03:49:24;13.85;;;6.60;;
81701;SDS011;71115;52.150;4.510;2023-08-30T03:51:50;11.63;;;6.32;;
81701;SDS011;71115;52.150;4.510;2023-08-30T03:54:16;12.82;;;6.57;;
81701;SDS011;71115;52.150;4.510;2023-08-30T03:56:42;13.77;;;5.80;;
81701;SDS011;71115;52.150;4.510;2023-08-30T03:59:09;10.88;;;5.40;;
81701;SDS011;71115;52.150;4.510;2023-08-30T04:01:35;15.73;;;6.82;;
81701;SDS011;71115;52.150;4.510;2023-08-30T04:04:01;13.98;;;6.88;;
81701;SDS011;71115;52.150;4.510;2023-08-30T04:06:27;13.27;;;6.38;;
81701;SDS011;71115;52.150;4.510;2023-08-30T04:08:53;15.35;;;6.32;;
81701;SDS011;71115;52.150;4.510;2023-08-30T04:11:19;13.93;;;7.45;;
81701;SDS011;71115;52.150;4.510;2023-08-30T04:13:45;12.80;;;6.75;;
81701;SDS011;71115;52.150;4.510;2023-08-30T04:16:11;12.90;;;7.38;;
81701;SDS011;71115;52.150;4.510;2023-08-30T04:18:37;12.32;;;6.70;;
81701;SDS011;71115;52.150;4.510;2023-08-30T04:21:06;13.90;;;7.95;;
81701;SDS011;71115;52.150;4.510;2023-08-30T04:23:33;13.70;;;5.93;;
81701;SDS011;71115;52.150;4.510;2023-08-30T04:25:59;13.05;;;6.70;;
81701;SDS011;71115;52.150;4.510;2023-08-30T04:28:25;11.15;;;5.75;;
81701;SDS011;71115;52.150;4.510;2023-08-30T04:30:55;14.00;;;6.65;;
81701;SDS011;71115;52.150;4.510;2023-08-30T04:33:21;11.23;;;6.47;;
81701;SDS011;71115;52.150;4.510;2023-08-30T04:35:53;13.90;;;6.63;;
81701;SDS011;71115;52.150;4.510;2023-08-30T04:38:20;9.55;;;3.92;;
81701;SDS011;71115;52.150;4.510;2023-08-30T04:40:46;17.42;;;6.78;;
81701;SDS011;71115;52.150;4.510;2023-08-30T04:43:13;12.40;;;6.55;;
81701;SDS011;71115;52.150;4.510;2023-08-30T04:45:39;15.30;;;6.50;;
81701;SDS011;71115;52.150;4.510;2023-08-30T04:48:05;9.20;;;4.70;;
81701;SDS011;71115;52.150;4.510;2023-08-30T04:50:32;16.23;;;6.80;;
81701;SDS011;71115;52.150;4.510;2023-08-30T04:52:58;11.98;;;6.18;;
81701;SDS011;71115;52.150;4.510;2023-08-30T04:55:24;14.38;;;7.07;;
81701;SDS011;71115;52.150;4.510;2023-08-30T04:57:50;13.93;;;6.25;;
81701;SDS011;71115;52.150;4.510;2023-08-30T05:00:17;12.95;;;6.80;;
81701;SDS011;71115;52.150;4.510;2023-08-30T05:02:44;11.93;;;6.47;;
81701;SDS011;71115;52.150;4.510;2023-08-30T05:05:11;13.93;;;6.28;;
81701;SDS011;71115;52.150;4.510;2023-08-30T05:07:40;14.23;;;6.72;;
81701;SDS011;71115;52.150;4.510;2023-08-30T05:10:07;15.27;;;6.57;;
81701;SDS011;71115;52.150;4.510;2023-08-30T05:12:33;17.65;;;7.95;;
81701;SDS011;71115;52.150;4.510;2023-08-30T05:15:00;12.52;;;6.45;;
81701;SDS011;71115;52.150;4.510;2023-08-30T05:17:26;14.60;;;7.07;;
81701;SDS011;71115;52.150;4.510;2023-08-30T05:19:56;16.48;;;7.63;;
81701;SDS011;71115;52.150;4.510;2023-08-30T05:22:25;19.83;;;8.20;;
81701;SDS011;71115;52.150;4.510;2023-08-30T05:24:51;14.65;;;8.10;;
81701;SDS011;71115;52.150;4.510;2023-08-30T05:27:17;14.90;;;6.07;;
81701;SDS011;71115;52.150;4.510;2023-08-30T05:29:43;15.55;;;7.50;;
81701;SDS011;71115;52.150;4.510;2023-08-30T05:32:09;9.93;;;6.53;;
81701;SDS011;71115;52.150;4.510;2023-08-30T05:34:35;18.27;;;8.63;;
81701;SDS011;71115;52.150;4.510;2023-08-30T05:37:02;13.63;;;7.07;;
81701;SDS011;71115;52.150;4.510;2023-08-30T05:39:28;14.20;;;6.65;;
81701;SDS011;71115;52.150;4.510;2023-08-30T05:41:54;19.70;;;10.10;;
81701;SDS011;71115;52.150;4.510;2023-08-30T05:44:20;16.40;;;7.25;;
81701;SDS011;71115;52.150;4.510;2023-08-30T05:46:46;23.75;;;11.05;;
81701;SDS011;71115;52.150;4.510;2023-08-30T05:49:12;23.30;;;9.65;;
81701;SDS011;71115;52.150;4.510;2023-08-30T05:51:38;23.42;;;10.45;;
81701;SDS011;71115;52.150;4.510;2023-08-30T05:54:04;18.95;;;9.90;;
81701;SDS011;71115;52.150;4.510;2023-08-30T05:56:30;21.60;;;10.90;;
81701;SDS011;71115;52.150;4.510;2023-08-30T05:58:56;19.55;;;10.38;;
81701;SDS011;71115;52.150;4.510;2023-08-30T06:01:22;19.58;;;9.23;;
81701;SDS011;71115;52.150;4.510;2023-08-30T06:03:48;21.17;;;11.75;;
81701;SDS011;71115;52.150;4.510;2023-08-30T06:06:15;23.13;;;11.45;;
81701;SDS011;71115;52.150;4.510;2023-08-30T06:08:41;16.98;;;9.07;;
81701;SDS011;71115;52.150;4.510;2023-08-30T06:11:07;22.25;;;9.60;;
81701;SDS011;71115;52.150;4.510;2023-08-30T06:13:33;20.63;;;9.43;;
81701;SDS011;71115;52.150;4.510;2023-08-30T06:16:00;23.42;;;9.45;;
81701;SDS011;71115;52.150;4.510;2023-08-30T06:18:30;20.02;;;10.73;;
81701;SDS011;71115;52.150;4.510;2023-08-30T06:21:00;19.25;;;9.80;;
81701;SDS011;71115;52.150;4.510;2023-08-30T06:23:26;16.92;;;9.48;;
81701;SDS011;71115;52.150;4.510;2023-08-30T06:25:56;18.27;;;7.72;;
81701;SDS011;71115;52.150;4.510;2023-08-30T06:28:22;21.67;;;8.82;;
81701;SDS011;71115;52.150;4.510;2023-08-30T06:30:48;25.40;;;11.23;;
81701;SDS011;71115;52.150;4.510;2023-08-30T06:33:15;29.65;;;12.65;;
81701;SDS011;71115;52.150;4.510;2023-08-30T06:35:41;29.73;;;14.60;;
81701;SDS011;71115;52.150;4.510;2023-08-30T06:38:07;16.20;;;9.48;;
81701;SDS011;71115;52.150;4.510;2023-08-30T06:40:33;30.40;;;13.60;;
81701;SDS011;71115;52.150;4.510;2023-08-30T06:42:59;21.27;;;9.85;;
81701;SDS011;71115;52.150;4.510;2023-08-30T06:45:26;22.27;;;12.60;;
81701;SDS011;71115;52.150;4.510;2023-08-30T06:47:52;11.95;;;6.72;;
81701;SDS011;71115;52.150;4.510;2023-08-30T06:50:18;21.67;;;9.55;;
81701;SDS011;71115;52.150;4.510;2023-08-30T06:52:44;15.45;;;9.02;;
81701;SDS011;71115;52.150;4.510;2023-08-30T06:55:10;18.27;;;11.05;;
81701;SDS011;71115;52.150;4.510;2023-08-30T06:57:36;24.50;;;12.73;;
81701;SDS011;71115;52.150;4.510;2023-08-30T07:00:02;32.88;;;11.85;;
81701;SDS011;71115;52.150;4.510;2023-08-30T07:02:33;25.23;;;11.75;;
81701;SDS011;71115;52.150;4.510;2023-08-30T07:04:59;16.85;;;9.30;;
81701;SDS011;71115;52.150;4.510;2023-08-30T07:07:26;28.23;;;13.45;;
81701;SDS011;71115;52.150;4.510;2023-08-30T07:09:52;23.85;;;11.00;;
81701;SDS011;71115;52.150;4.510;2023-08-30T07:12:18;24.85;;;10.32;;
81701;SDS011;71115;52.150;4.510;2023-08-30T07:14:44;15.63;;;8.00;;
81701;SDS011;71115;52.150;4.510;2023-08-30T07:17:10;12.38;;;6.97;;
81701;SDS011;71115;52.150;4.510;2023-08-30T07:19:36;20.58;;;10.38;;
81701;SDS011;71115;52.150;4.510;2023-08-30T07:22:02;14.98;;;8.10;;
81701;SDS011;71115;52.150;4.510;2023-08-30T07:24:29;16.90;;;9.07;;
81701;SDS011;71115;52.150;4.510;2023-08-30T07:26:55;14.00;;;7.45;;
81701;SDS011;71115;52.150;4.510;2023-08-30T07:29:21;8.88;;;5.20;;
81701;SDS011;71115;52.150;4.510;2023-08-30T07:31:47;9.68;;;5.90;;
81701;SDS011;71115;52.150;4.510;2023-08-30T07:34:16;14.38;;;7.75;;
81701;SDS011;71115;52.150;4.510;2023-08-30T07:36:42;8.50;;;4.28;;
81701;SDS011;71115;52.150;4.510;2023-08-30T07:39:08;14.02;;;8.35;;
81701;SDS011;71115;52.150;4.510;2023-08-30T07:41:34;12.05;;;7.50;;
81701;SDS011;71115;52.150;4.510;2023-08-30T07:44:00;15.82;;;8.85;;
81701;SDS011;71115;52.150;4.510;2023-08-30T07:46:29;12.48;;;6.15;;
81701;SDS011;71115;52.150;4.510;2023-08-30T07:48:55;11.25;;;6.60;;
81701;SDS011;71115;52.150;4.510;2023-08-30T07:51:21;13.98;;;7.30;;
81701;SDS011;71115;52.150;4.510;2023-08-30T07:53:47;14.93;;;7.53;;
81701;SDS011;71115;52.150;4.510;2023-08-30T07:56:13;12.07;;;7.60;;
81701;SDS011;71115;52.150;4.510;2023-08-30T07:58:42;10.13;;;6.32;;
81701;SDS011;71115;52.150;4.510;2023-08-30T08:01:08;11.60;;;7.22;;
81701;SDS011;71115;52.150;4.510;2023-08-30T08:03:34;32.83;;;9.07;;
81701;SDS011;71115;52.150;4.510;2023-08-30T08:06:00;6.38;;;4.40;;
81701;SDS011;71115;52.150;4.510;2023-08-30T08:08:26;11.88;;;6.90;;
81701;SDS011;71115;52.150;4.510;2023-08-30T08:10:52;7.43;;;4.28;;
81701;SDS011;71115;52.150;4.510;2023-08-30T08:13:18;11.98;;;7.60;;
81701;SDS011;71115;52.150;4.510;2023-08-30T08:15:44;10.13;;;6.88;;
81701;SDS011;71115;52.150;4.510;2023-08-30T08:18:10;9.30;;;4.15;;
81701;SDS011;71115;52.150;4.510;2023-08-30T08:20:36;16.08;;;8.18;;
81701;SDS011;71115;52.150;4.510;2023-08-30T08:23:04;15.63;;;9.07;;
81701;SDS011;71115;52.150;4.510;2023-08-30T08:25:30;10.70;;;6.57;;
81701;SDS011;71115;52.150;4.510;2023-08-30T08:27:56;15.52;;;9.10;;
81701;SDS011;71115;52.150;4.510;2023-08-30T08:30:22;16.88;;;9.57;;
81701;SDS011;71115;52.150;4.510;2023-08-30T08:32:48;14.95;;;9.10;;
81701;SDS011;71115;52.150;4.510;2023-08-30T08:35:14;16.08;;;10.18;;
81701;SDS011;71115;52.150;4.510;2023-08-30T08:37:40;9.43;;;6.00;;
81701;SDS011;71115;52.150;4.510;2023-08-30T08:40:07;15.60;;;10.30;;
81701;SDS011;71115;52.150;4.510;2023-08-30T08:42:36;11.30;;;7.28;;
81701;SDS011;71115;52.150;4.510;2023-08-30T08:45:03;13.50;;;8.25;;
81701;SDS011;71115;52.150;4.510;2023-08-30T08:47:29;11.13;;;5.28;;
81701;SDS011;71115;52.150;4.510;2023-08-30T08:49:55;7.72;;;5.28;;
81701;SDS011;71115;52.150;4.510;2023-08-30T08:52:23;7.45;;;4.78;;
81701;SDS011;71115;52.150;4.510;2023-08-30T08:54:49;4.20;;;2.67;;
81701;SDS011;71115;52.150;4.510;2023-08-30T08:57:16;4.75;;;2.20;;
81701;SDS011;71115;52.150;4.510;2023-08-30T08:59:42;5.70;;;2.45;;
81701;SDS011;71115;52.150;4.510;2023-08-30T09:02:10;3.88;;;1.75;;
81701;SDS011;71115;52.150;4.510;2023-08-30T09:04:38;5.78;;;1.60;;
81701;SDS011;71115;52.150;4.510;2023-08-30T09:07:05;3.65;;;1.65;;
81701;SDS011;71115;52.150;4.510;2023-08-30T09:09:32;2.95;;;1.10;;
81701;SDS011;71115;52.150;4.510;2023-08-30T09:11:58;4.55;;;1.40;;
81701;SDS011;71115;52.150;4.510;2023-08-30T09:14:24;5.60;;;1.90;;
81701;SDS011;71115;52.150;4.510;2023-08-30T09:16:54;6.18;;;1.88;;
81701;SDS011;71115;52.150;4.510;2023-08-30T09:19:20;3.95;;;1.40;;
81701;SDS011;71115;52.150;4.510;2023-08-30T09:21:51;2.97;;;1.30;;
81701;SDS011;71115;52.150;4.510;2023-08-30T09:24:17;5.70;;;1.10;;
81701;SDS011;71115;52.150;4.510;2023-08-30T09:26:46;3.95;;;1.42;;
81701;SDS011;71115;52.150;4.510;2023-08-30T09:29:12;4.43;;;1.60;;
81701;SDS011;71115;52.150;4.510;2023-08-30T09:31:39;11.57;;;1.90;;
81701;SDS011;71115;52.150;4.510;2023-08-30T09:34:08;4.55;;;1.50;;
81701;SDS011;71115;52.150;4.510;2023-08-30T09:36:39;7.85;;;1.90;;
81701;SDS011;71115;52.150;4.510;2023-08-30T09:39:06;3.85;;;1.42;;
81701;SDS011;71115;52.150;4.510;2023-08-30T09:41:32;11.13;;;1.80;;
81701;SDS011;71115;52.150;4.510;2023-08-30T09:43:59;5.45;;;1.50;;
81701;SDS011;71115;52.150;4.510;2023-08-30T09:46:25;8.18;;;1.63;;
81701;SDS011;71115;52.150;4.510;2023-08-30T09:48:53;4.28;;;1.30;;
81701;SDS011;71115;52.150;4.510;2023-08-30T09:51:19;5.95;;;1.80;;
81701;SDS011;71115;52.150;4.510;2023-08-30T09:53:46;10.50;;;2.03;;
81701;SDS011;71115;52.150;4.510;2023-08-30T09:56:14;5.97;;;2.17;;
81701;SDS011;71115;52.150;4.510;2023-08-30T09:58:41;8.45;;;1.83;;
81701;SDS011;71115;52.150;4.510;2023-08-30T10:01:07;4.80;;;1.13;;
81701;SDS011;71115;52.150;4.510;2023-08-30T10:03:34;10.82;;;2.03;;
81701;SDS011;71115;52.150;4.510;2023-08-30T10:08:30;6.95;;;1.92;;
81701;SDS011;71115;52.150;4.510;2023-08-30T10:10:58;14.10;;;1.50;;
81701;SDS011;71115;52.150;4.510;2023-08-30T10:13:25;3.75;;;1.45;;
81701;SDS011;71115;52.150;4.510;2023-08-30T10:15:52;6.70;;;1.42;;
81701;SDS011;71115;52.150;4.510;2023-08-30T10:18:20;5.13;;;1.52;;
81701;SDS011;71115;52.150;4.510;2023-08-30T10:20:47;5.45;;;2.30;;
81701;SDS011;71115;52.150;4.510;2023-08-30T10:23:14;10.70;;;2.13;;
81701;SDS011;71115;52.150;4.510;2023-08-30T10:25:42;5.55;;;1.30;;
81701;SDS011;71115;52.150;4.510;2023-08-30T10:28:09;5.32;;;1.88;;
81701;SDS011;71115;52.150;4.510;2023-08-30T10:30:37;2.83;;;1.13;;
81701;SDS011;71115;52.150;4.510;2023-08-30T10:33:11;3.65;;;1.38;;
81701;SDS011;71115;52.150;4.510;2023-08-30T10:35:46;5.07;;;1.23;;
81701;SDS011;71115;52.150;4.510;2023-08-30T10:38:12;8.70;;;1.48;;
81701;SDS011;71115;52.150;4.510;2023-08-30T10:40:45;8.68;;;1.90;;
81701;SDS011;71115;52.150;4.510;2023-08-30T10:45:37;7.63;;;1.40;;
81701;SDS011;71115;52.150;4.510;2023-08-30T10:48:03;7.93;;;1.67;;
81701;SDS011;71115;52.150;4.510;2023-08-30T10:50:30;4.93;;;1.52;;
81701;SDS011;71115;52.150;4.510;2023-08-30T10:52:57;10.40;;;2.05;;
81701;SDS011;71115;52.150;4.510;2023-08-30T10:55:23;6.10;;;1.40;;
81701;SDS011;71115;52.150;4.510;2023-08-30T11:00:19;6.80;;;1.35;;
81701;SDS011;71115;52.150;4.510;2023-08-30T11:02:46;6.40;;;1.98;;
81701;SDS011;71115;52.150;4.510;2023-08-30T11:05:12;6.25;;;1.73;;
81701;SDS011;71115;52.150;4.510;2023-08-30T11:07:38;4.78;;;1.20;;
81701;SDS011;71115;52.150;4.510;2023-08-30T11:10:05;3.92;;;0.98;;
81701;SDS011;71115;52.150;4.510;2023-08-30T11:12:34;5.15;;;1.52;;
81701;SDS011;71115;52.150;4.510;2023-08-30T11:15:01;3.47;;;1.10;;
81701;SDS011;71115;52.150;4.510;2023-08-30T11:17:27;5.35;;;1.52;;
81701;SDS011;71115;52.150;4.510;2023-08-30T11:19:57;4.35;;;1.30;;
81701;SDS011;71115;52.150;4.510;2023-08-30T11:22:24;2.65;;;1.10;;
81701;SDS011;71115;52.150;4.510;2023-08-30T11:24:50;3.10;;;1.10;;
81701;SDS011;71115;52.150;4.510;2023-08-30T11:27:17;6.45;;;1.50;;
81701;SDS011;71115;52.150;4.510;2023-08-30T11:29:43;9.68;;;1.48;;
81701;SDS011;71115;52.150;4.510;2023-08-30T11:32:09;3.38;;;1.05;;
81701;SDS011;71115;52.150;4.510;2023-08-30T11:34:35;5.38;;;0.82;;
81701;SDS011;71115;52.150;4.510;2023-08-30T11:37:01;2.53;;;0.60;;
81701;SDS011;71115;52.150;4.510;2023-08-30T11:39:30;5.85;;;1.23;;
81701;SDS011;71115;52.150;4.510;2023-08-30T11:41:56;2.40;;;1.20;;
81701;SDS011;71115;52.150;4.510;2023-08-30T11:46:48;3.53;;;0.90;;
81701;SDS011;71115;52.150;4.510;2023-08-30T11:49:17;3.97;;;1.05;;
81701;SDS011;71115;52.150;4.510;2023-08-30T11:54:10;4.47;;;1.42;;
81701;SDS011;71115;52.150;4.510;2023-08-30T11:56:36;5.22;;;1.33;;
81701;SDS011;71115;52.150;4.510;2023-08-30T11:59:02;4.20;;;1.13;;
81701;SDS011;71115;52.150;4.510;2023-08-30T12:01:29;3.75;;;1.00;;
81701;SDS011;71115;52.150;4.510;2023-08-30T12:03:55;4.63;;;1.35;;
81701;SDS011;71115;52.150;4.510;2023-08-30T12:06:22;6.80;;;1.20;;
81701;SDS011;71115;52.150;4.510;2023-08-30T12:08:56;8.38;;;1.83;;
81701;SDS011;71115;52.150;4.510;2023-08-30T12:11:23;4.90;;;1.17;;
81701;SDS011;71115;52.150;4.510;2023-08-30T12:13:49;8.63;;;1.48;;
81701;SDS011;71115;52.150;4.510;2023-08-30T12:16:16;6.47;;;0.90;;
81701;SDS011;71115;52.150;4.510;2023-08-30T12:18:42;5.95;;;1.55;;
81701;SDS011;71115;52.150;4.510;2023-08-30T12:21:08;3.50;;;0.95;;
81701;SDS011;71115;52.150;4.510;2023-08-30T12:23:34;4.30;;;1.27;;
81701;SDS011;71115;52.150;4.510;2023-08-30T12:28:30;1.05;;;0.63;;
81701;SDS011;71115;52.150;4.510;2023-08-30T12:30:57;3.50;;;0.90;;
81701;SDS011;71115;52.150;4.510;2023-08-30T12:33:23;2.50;;;0.95;;
81701;SDS011;71115;52.150;4.510;2023-08-30T12:35:53;2.83;;;0.93;;
81701;SDS011;71115;52.150;4.510;2023-08-30T12:38:20;5.70;;;0.98;;
81701;SDS011;71115;52.150;4.510;2023-08-30T12:43:12;2.70;;;0.93;;
81701;SDS011;71115;52.150;4.510;2023-08-30T12:45:39;5.03;;;1.25;;
81701;SDS011;71115;52.150;4.510;2023-08-30T12:48:09;2.13;;;0.95;;
81701;SDS011;71115;52.150;4.510;2023-08-30T12:50:36;3.55;;;1.23;;
81701;SDS011;71115;52.150;4.510;2023-08-30T12:53:03;4.82;;;1.42;;
81701;SDS011;71115;52.150;4.510;2023-08-30T12:55:29;7.80;;;1.98;;
81701;SDS011;71115;52.150;4.510;2023-08-30T12:57:55;3.38;;;1.10;;
81701;SDS011;71115;52.150;4.510;2023-08-30T13:00:21;4.25;;;1.00;;
81701;SDS011;71115;52.150;4.510;2023-08-30T13:05:13;4.22;;;0.90;;
81701;SDS011;71115;52.150;4.510;2023-08-30T13:07:39;6.93;;;1.13;;
81701;SDS011;71115;52.150;4.510;2023-08-30T13:10:06;2.42;;;0.73;;
81701;SDS011;71115;52.150;4.510;2023-08-30T13:12:32;3.58;;;1.00;;
81701;SDS011;71115;52.150;4.510;2023-08-30T13:14:58;2.95;;;0.93;;
81701;SDS011;71115;52.150;4.510;2023-08-30T13:17:24;4.90;;;0.85;;
81701;SDS011;71115;52.150;4.510;2023-08-30T13:22:16;2.58;;;0.73;;
81701;SDS011;71115;52.150;4.510;2023-08-30T13:24:43;6.32;;;0.60;;
81701;SDS011;71115;52.150;4.510;2023-08-30T13:27:09;1.67;;;0.88;;
81701;SDS011;71115;52.150;4.510;2023-08-30T13:29:35;2.65;;;0.90;;
81701;SDS011;71115;52.150;4.510;2023-08-30T13:32:02;3.67;;;0.90;;
81701;SDS011;71115;52.150;4.510;2023-08-30T13:36:54;6.78;;;1.45;;
81701;SDS011;71115;52.150;4.510;2023-08-30T13:39:20;6.60;;;2.08;;
81701;SDS011;71115;52.150;4.510;2023-08-30T13:41:47;5.40;;;0.65;;
81701;SDS011;71115;52.150;4.510;2023-08-30T13:44:13;4.30;;;1.02;;
81701;SDS011;71115;52.150;4.510;2023-08-30T13:49:05;1.90;;;0.90;;
81701;SDS011;71115;52.150;4.510;2023-08-30T13:51:31;8.95;;;1.40;;
81701;SDS011;71115;52.150;4.510;2023-08-30T13:53:57;4.43;;;1.02;;
81701;SDS011;71115;52.150;4.510;2023-08-30T13:56:23;6.47;;;1.58;;
81701;SDS011;71115;52.150;4.510;2023-08-30T14:01:16;3.25;;;1.10;;
81701;SDS011;71115;52.150;4.510;2023-08-30T14:03:42;3.05;;;1.15;;
81701;SDS011;71115;52.150;4.510;2023-08-30T14:08:34;9.60;;;1.40;;
81701;SDS011;71115;52.150;4.510;2023-08-30T14:13:26;4.35;;;1.00;;
81701;SDS011;71115;52.150;4.510;2023-08-30T14:15:57;5.10;;;0.95;;
81701;SDS011;71115;52.150;4.510;2023-08-30T14:18:23;2.60;;;0.63;;
81701;SDS011;71115;52.150;4.510;2023-08-30T14:20:49;6.97;;;0.98;;
81701;SDS011;71115;52.150;4.510;2023-08-30T14:23:15;5.63;;;1.30;;
81701;SDS011;71115;52.150;4.510;2023-08-30T14:25:41;3.78;;;1.17;;
81701;SDS011;71115;52.150;4.510;2023-08-30T14:28:09;4.03;;;0.77;;
81701;SDS011;71115;52.150;4.510;2023-08-30T14:30:35;2.13;;;0.73;;
81701;SDS011;71115;52.150;4.510;2023-08-30T14:33:01;1.25;;;0.60;;
81701;SDS011;71115;52.150;4.510;2023-08-30T14:35:27;4.70;;;1.50;;
81701;SDS011;71115;52.150;4.510;2023-08-30T14:37:54;3.33;;;1.42;;
81701;SDS011;71115;52.150;4.510;2023-08-30T14:40:20;1.27;;;0.50;;
81701;SDS011;71115;52.150;4.510;2023-08-30T14:42:46;2.95;;;0.77;;
81701;SDS011;71115;52.150;4.510;2023-08-30T14:45:12;3.78;;;1.00;;
81701;SDS011;71115;52.150;4.510;2023-08-30T14:47:38;3.72;;;1.20;;
81701;SDS011;71115;52.150;4.510;2023-08-30T14:50:04;4.10;;;0.73;;
81701;SDS011;71115;52.150;4.510;2023-08-30T14:52:31;3.20;;;1.23;;
81701;SDS011;71115;52.150;4.510;2023-08-30T14:54:57;3.65;;;0.98;;
81701;SDS011;71115;52.150;4.510;2023-08-30T14:57:23;3.80;;;0.63;;
81701;SDS011;71115;52.150;4.510;2023-08-30T14:59:50;5.63;;;1.77;;
81701;SDS011;71115;52.150;4.510;2023-08-30T15:02:16;4.55;;;1.42;;
81701;SDS011;71115;52.150;4.510;2023-08-30T15:04:42;6.53;;;1.45;;
81701;SDS011;71115;52.150;4.510;2023-08-30T15:07:08;3.25;;;0.95;;
81701;SDS011;71115;52.150;4.510;2023-08-30T15:09:34;3.80;;;0.98;;
81701;SDS011;71115;52.150;4.510;2023-08-30T15:12:00;1.30;;;0.60;;
81701;SDS011;71115;52.150;4.510;2023-08-30T15:14:26;3.75;;;0.63;;
81701;SDS011;71115;52.150;4.510;2023-08-30T15:16:52;3.58;;;0.65;;
81701;SDS011;71115;52.150;4.510;2023-08-30T15:19:18;0.88;;;0.43;;
81701;SDS011;71115;52.150;4.510;2023-08-30T15:21:45;1.48;;;0.70;;
81701;SDS011;71115;52.150;4.510;2023-08-30T15:26:38;4.28;;;1.15;;
81701;SDS011;71115;52.150;4.510;2023-08-30T15:29:04;2.50;;;0.50;;